createdAt,value
2022-10-02T00:02:21.952Z,6.78
2022-10-02T00:05:16.437Z,7.35
2022-10-02T00:08:01.491Z,6.22
2022-10-02T00:10:35.214Z,6.03
2022-10-02T00:13:25.993Z,7.07
2022-10-02T00:15:56.422Z,6.35
2022-10-02T00:18:33.214Z,6.03
2022-10-02T00:21:32.095Z,5.97
2022-10-02T00:24:06.599Z,6.45
2022-10-02T00:27:00.720Z,6.45
2022-10-02T00:29:48.439Z,6.63
2022-10-02T00:33:02.023Z,7.28
2022-10-02T00:35:47.917Z,7.05
2022-10-02T00:38:46.520Z,6.25
2022-10-02T00:41:55.905Z,7.93
2022-10-02T00:44:47.770Z,6.72
2022-10-02T00:47:30.229Z,6.43
2022-10-02T00:50:18.376Z,6.95
2022-10-02T00:52:50.254Z,7.05
2022-10-02T00:56:12.814Z,6.43
2022-10-02T00:59:02.543Z,7.03
2022-10-02T01:01:43.399Z,6.35
2022-10-02T01:04:20.851Z,6.13
2022-10-02T01:06:51.311Z,6.20
2022-10-02T01:09:19.586Z,6.93
2022-10-02T01:11:55.796Z,7.38
2022-10-02T01:14:39.687Z,6.88
2022-10-02T01:17:31.559Z,6.55
2022-10-02T01:20:12.724Z,6.82
2022-10-02T01:23:02.838Z,7.32
2022-10-02T01:25:34.289Z,7.25
2022-10-02T01:28:02.740Z,7.20
2022-10-02T01:30:40.981Z,7.32
2022-10-02T01:33:13.643Z,6.90
2022-10-02T01:35:44.682Z,8.02
2022-10-02T01:38:18.619Z,7.75
2022-10-02T01:40:52.815Z,6.65
2022-10-02T01:43:37.236Z,8.35
2022-10-02T01:49:19.958Z,8.40
2022-10-02T01:52:21.364Z,10.55
2022-10-02T01:55:14.661Z,8.40
2022-10-02T01:57:41.937Z,9.32
2022-10-02T02:00:14.080Z,9.05
2022-10-02T02:02:46.427Z,8.98
2022-10-02T02:05:24.635Z,9.45
2022-10-02T02:08:09.081Z,8.70
2022-10-02T02:11:15.247Z,10.18
2022-10-02T02:13:54.117Z,10.73
2022-10-02T02:17:06.656Z,10.70
2022-10-02T02:20:01.418Z,10.98
2022-10-02T02:22:38.872Z,10.02
2022-10-02T02:25:33.990Z,11.88
2022-10-02T02:28:05.181Z,11.23
2022-10-02T02:30:33.876Z,12.23
2022-10-02T02:33:32.943Z,10.75
2022-10-02T02:36:12.612Z,11.63
2022-10-02T02:38:46.006Z,11.68
2022-10-02T02:41:22.392Z,11.40
2022-10-02T02:43:59.561Z,11.50
2022-10-02T02:46:31.492Z,12.63
2022-10-02T02:49:07.618Z,13.68
2022-10-02T02:51:42.981Z,12.43
2022-10-02T02:54:16.145Z,11.88
2022-10-02T02:56:48.717Z,13.10
2022-10-02T02:59:19.184Z,12.82
2022-10-02T03:01:46.884Z,14.13
2022-10-02T03:04:14.944Z,13.93
2022-10-02T03:06:49.336Z,14.77
2022-10-02T03:09:20.189Z,15.63
2022-10-02T03:12:09.189Z,15.90
2022-10-02T03:14:54.622Z,14.45
2022-10-02T03:17:44.734Z,15.75
2022-10-02T03:20:34.688Z,15.60
2022-10-02T03:23:13.493Z,14.97
2022-10-02T03:25:50.497Z,14.65
2022-10-02T03:28:54.894Z,14.82
2022-10-02T03:31:31.849Z,14.98
2022-10-02T03:34:02.004Z,15.40
2022-10-02T03:36:30.861Z,13.75
2022-10-02T03:39:23.556Z,13.82
2022-10-02T03:41:51.224Z,12.48
2022-10-02T03:44:23.169Z,13.98
2022-10-02T03:46:55.202Z,14.25
2022-10-02T03:49:22.552Z,12.48
2022-10-02T03:51:55.078Z,13.02
2022-10-02T03:54:22.888Z,12.75
2022-10-02T03:56:53.395Z,12.60
2022-10-02T03:59:49.214Z,12.50
2022-10-02T04:02:43.882Z,12.15
2022-10-02T04:05:31.289Z,12.70
2022-10-02T04:08:07.314Z,11.40
2022-10-02T04:10:56.931Z,10.70
2022-10-02T04:13:53.353Z,11.95
2022-10-02T04:16:24.262Z,10.63
2022-10-02T04:19:04.186Z,10.85
2022-10-02T04:21:37.207Z,10.50
2022-10-02T04:24:15.479Z,11.02
2022-10-02T04:26:56.555Z,10.95
2022-10-02T04:29:28.589Z,10.98
2022-10-02T04:32:16.791Z,10.10
2022-10-02T04:34:49.139Z,9.10
2022-10-02T04:37:43.251Z,10.25
2022-10-02T04:40:51.068Z,8.50
2022-10-02T04:43:38.328Z,8.73
2022-10-02T04:46:25.982Z,8.38
2022-10-02T04:49:07.145Z,7.72
2022-10-02T04:51:40.449Z,8.68
2022-10-02T04:54:10.264Z,7.45
2022-10-02T04:57:05.481Z,6.55
2022-10-02T05:02:43.901Z,5.68
2022-10-02T05:05:25.400Z,5.13
2022-10-02T05:08:20.991Z,5.88
2022-10-02T05:11:23.719Z,5.20
2022-10-02T05:16:54.794Z,5.60
2022-10-02T05:19:57.485Z,5.47
2022-10-02T05:22:36.071Z,5.60
2022-10-02T05:25:36.334Z,4.85
2022-10-02T05:28:40.212Z,5.47
2022-10-02T05:31:38.481Z,4.50
2022-10-02T05:34:53.374Z,5.20
2022-10-02T05:37:40.740Z,5.25
2022-10-02T05:40:31.547Z,4.82
2022-10-02T05:43:29.777Z,4.50
2022-10-02T05:46:05.626Z,4.50
2022-10-02T05:48:49.068Z,4.13
2022-10-02T05:52:02.696Z,3.75
2022-10-02T05:54:47.201Z,4.00
2022-10-02T05:57:32.103Z,3.75
2022-10-02T06:00:20.807Z,3.55
2022-10-02T06:02:48.102Z,4.45
2022-10-02T06:05:17.840Z,3.70
2022-10-02T06:07:50.731Z,3.70
2022-10-02T06:10:22.111Z,4.20
2022-10-02T06:13:17.831Z,3.40
2022-10-02T06:16:10.129Z,3.03
2022-10-02T06:18:46.764Z,3.72
2022-10-02T06:21:33.033Z,3.10
2022-10-02T06:24:06.013Z,3.33
2022-10-02T06:27:00.768Z,3.38
2022-10-02T06:29:42.400Z,2.90
2022-10-02T06:32:25.198Z,2.25
2022-10-02T06:34:54.590Z,2.15
2022-10-02T06:38:03.528Z,2.35
2022-10-02T06:40:54.230Z,2.20
2022-10-02T06:43:42.630Z,2.78
2022-10-02T06:46:37.110Z,2.45
2022-10-02T06:49:31.803Z,2.85
2022-10-02T06:52:04.364Z,2.78
2022-10-02T06:54:46.963Z,3.15
2022-10-02T06:57:43.326Z,2.53
2022-10-02T07:00:18.190Z,2.67
2022-10-02T07:02:57.431Z,2.10
2022-10-02T07:05:53.389Z,1.90
2022-10-02T07:08:45.168Z,2.67
2022-10-02T07:11:39.630Z,3.20
2022-10-02T07:14:28.496Z,2.33
2022-10-02T07:17:10.519Z,2.55
2022-10-02T07:19:43.291Z,2.75
2022-10-02T07:22:44.095Z,2.50
2022-10-02T07:25:18.163Z,2.97
2022-10-02T07:28:07.215Z,4.00
2022-10-02T07:30:58.283Z,3.28
2022-10-02T07:33:44.716Z,2.58
2022-10-02T07:36:25.829Z,5.32
2022-10-02T07:39:21.433Z,4.97
2022-10-02T07:42:12.262Z,3.38
2022-10-02T07:44:39.609Z,4.00
2022-10-02T07:47:36.835Z,2.53
2022-10-02T07:50:40.879Z,8.07
2022-10-02T07:53:43.061Z,6.57
2022-10-02T07:56:20.101Z,3.30
2022-10-02T07:59:03.781Z,3.15
2022-10-02T08:01:37.357Z,3.60
2022-10-02T08:04:11.385Z,3.65
2022-10-02T08:06:41.601Z,2.70
2022-10-02T08:09:19.020Z,2.45
2022-10-02T08:11:54.911Z,2.83
2022-10-02T08:14:44.315Z,2.63
2022-10-02T08:17:43.086Z,3.65
2022-10-02T08:20:25.386Z,3.28
2022-10-02T08:23:14.611Z,4.50
2022-10-02T08:26:11.687Z,3.58
2022-10-02T08:28:49.525Z,2.70
2022-10-02T08:31:23.439Z,2.97
2022-10-02T08:33:52.020Z,2.63
2022-10-02T08:36:34.283Z,2.80
2022-10-02T08:39:28.286Z,3.00
2022-10-02T08:42:14.052Z,3.28
2022-10-02T08:45:19.493Z,2.92
2022-10-02T08:47:55.073Z,3.25
2022-10-02T08:50:46.838Z,2.88
2022-10-02T08:53:49.102Z,2.97
2022-10-02T08:56:41.143Z,2.50
2022-10-02T08:59:25.967Z,2.22
2022-10-02T09:02:34.810Z,2.47
2022-10-02T09:05:04.221Z,1.67
2022-10-02T09:07:47.258Z,3.58
2022-10-02T09:10:32.897Z,2.65
2022-10-02T09:13:18.614Z,2.53
2022-10-02T09:15:50.537Z,1.85
2022-10-02T09:21:22.264Z,1.67
2022-10-02T09:24:20.326Z,2.63
2022-10-02T09:27:15.713Z,2.20
2022-10-02T09:30:19.450Z,1.58
2022-10-02T09:33:27.277Z,1.67
2022-10-02T09:36:26.709Z,2.03
2022-10-02T09:39:25.822Z,1.92
2022-10-02T09:42:34.269Z,1.65
2022-10-02T09:45:36.748Z,2.63
2022-10-02T09:48:45.342Z,2.67
2022-10-02T09:51:44.314Z,2.03
2022-10-02T09:54:44.204Z,1.88
2022-10-02T09:57:50.153Z,2.03
2022-10-02T10:00:49.552Z,3.60
2022-10-02T10:03:19.238Z,2.83
2022-10-02T10:06:24.317Z,1.48
2022-10-02T10:08:53.465Z,2.25
2022-10-02T10:11:31.048Z,1.73
2022-10-02T10:14:17.510Z,1.63
2022-10-02T10:17:02.160Z,1.52
2022-10-02T10:20:04.067Z,2.03
2022-10-02T10:23:08.696Z,2.20
2022-10-02T10:25:50.252Z,2.95
2022-10-02T10:28:50.257Z,2.17
2022-10-02T10:31:36.875Z,2.03
2022-10-02T10:34:25.261Z,2.65
2022-10-02T10:37:20.515Z,2.10
2022-10-02T10:40:06.937Z,2.67
2022-10-02T10:43:07.414Z,2.78
2022-10-02T10:46:07.764Z,3.15
2022-10-02T10:49:09.681Z,2.85
2022-10-02T10:51:48.399Z,2.75
2022-10-02T10:54:40.570Z,5.43
2022-10-02T10:57:43.492Z,4.30
2022-10-02T11:00:23.406Z,4.32
2022-10-02T11:03:17.447Z,3.15
2022-10-02T11:06:03.684Z,2.88
2022-10-02T11:08:37.108Z,3.65
2022-10-02T11:11:13.288Z,3.58
2022-10-02T11:14:20.482Z,3.35
2022-10-02T11:17:25.204Z,3.28
2022-10-02T11:20:38.022Z,2.97
2022-10-02T11:23:32.377Z,2.50
2022-10-02T11:26:21.399Z,3.72
2022-10-02T11:29:12.571Z,3.35
2022-10-02T11:31:54.047Z,3.15
2022-10-02T11:34:33.562Z,3.13
2022-10-02T11:37:31.842Z,2.90
2022-10-02T11:40:22.983Z,2.22
2022-10-02T11:42:59.175Z,3.33
2022-10-02T11:45:59.593Z,3.33
2022-10-02T11:48:55.935Z,3.08
2022-10-02T11:51:56.781Z,2.80
2022-10-02T11:54:48.501Z,5.00
2022-10-02T11:57:45.755Z,5.25
2022-10-02T12:00:45.124Z,4.35
2022-10-02T12:03:26.339Z,8.05
2022-10-02T12:06:19.463Z,6.72
2022-10-02T12:09:10.218Z,3.90
2022-10-02T12:12:04.048Z,3.63
2022-10-02T12:14:54.863Z,3.85
2022-10-02T12:17:38.807Z,4.13
2022-10-02T12:20:26.384Z,4.65
2022-10-02T12:23:42.469Z,3.33
2022-10-02T12:26:58.835Z,4.45
2022-10-02T12:29:53.435Z,3.05
2022-10-02T12:32:46.797Z,2.92
2022-10-02T12:35:33.311Z,3.00
2022-10-02T12:38:18.918Z,6.75
2022-10-02T12:40:57.866Z,2.17
2022-10-02T12:43:53.132Z,2.13
2022-10-02T12:46:46.218Z,3.00
2022-10-02T12:49:22.520Z,2.80
2022-10-02T12:52:29.880Z,3.05
2022-10-02T12:55:44.389Z,2.10
2022-10-02T12:58:25.731Z,3.45
2022-10-02T13:01:09.908Z,2.40
2022-10-02T13:06:46.605Z,2.15
2022-10-02T13:09:56.273Z,2.00
2022-10-02T13:12:31.038Z,2.15
2022-10-02T13:15:04.550Z,2.40
2022-10-02T13:17:34.092Z,2.22
2022-10-02T13:20:16.020Z,1.88
2022-10-02T13:23:09.514Z,1.85
2022-10-02T13:25:57.235Z,1.63
2022-10-02T13:28:26.973Z,1.58
2022-10-02T13:31:23.649Z,2.22
2022-10-02T13:34:09.492Z,1.98
2022-10-02T13:37:06.956Z,2.05
2022-10-02T13:40:01.468Z,1.98
2022-10-02T13:42:53.087Z,1.67
2022-10-02T13:45:40.509Z,2.35
2022-10-02T13:48:54.945Z,2.28
2022-10-02T13:51:41.052Z,1.60
2022-10-02T13:54:32.348Z,1.63
2022-10-02T13:57:21.675Z,1.90
2022-10-02T14:00:04.175Z,1.60
2022-10-02T14:02:43.241Z,1.75
2022-10-02T14:05:11.310Z,1.88
2022-10-02T14:08:14.548Z,2.03
2022-10-02T14:11:00.109Z,2.30
2022-10-02T14:14:03.363Z,1.75
2022-10-02T14:16:46.401Z,1.10
2022-10-02T14:19:57.198Z,1.55
2022-10-02T14:22:27.530Z,2.28
2022-10-02T14:25:17.976Z,2.17
2022-10-02T14:27:50.886Z,1.58
2022-10-02T14:30:43.004Z,1.63
2022-10-02T14:33:37.499Z,2.30
2022-10-02T14:36:42.511Z,2.92
2022-10-02T14:39:17.802Z,2.17
2022-10-02T14:41:55.298Z,1.90
2022-10-02T14:45:04.368Z,1.85
2022-10-02T14:47:53.417Z,1.40
2022-10-02T14:50:48.616Z,1.80
2022-10-02T14:53:41.248Z,2.00
2022-10-02T14:56:35.215Z,2.05
2022-10-02T14:59:16.186Z,1.55
2022-10-02T15:01:55.198Z,2.20
2022-10-02T15:04:31.504Z,2.10
2022-10-02T15:07:17.171Z,1.77
2022-10-02T15:10:23.894Z,1.90
2022-10-02T15:13:00.982Z,2.25
2022-10-02T15:16:22.094Z,1.40
2022-10-02T15:18:58.930Z,2.45
2022-10-02T15:22:06.459Z,1.60
2022-10-02T15:24:57.672Z,2.00
2022-10-02T15:27:33.709Z,2.38
2022-10-02T15:30:28.484Z,2.20
2022-10-02T15:33:10.859Z,1.77
2022-10-02T15:36:01.343Z,2.85
2022-10-02T15:38:59.860Z,2.15
2022-10-02T15:42:18.333Z,2.75
2022-10-02T15:45:07.361Z,2.45
2022-10-02T15:48:01.467Z,2.50
2022-10-02T15:50:57.510Z,3.05
2022-10-02T15:54:14.866Z,2.15
2022-10-02T15:57:12.106Z,2.92
2022-10-02T16:00:18.700Z,2.33
2022-10-02T16:03:02.438Z,1.95
2022-10-02T16:06:01.320Z,2.80
2022-10-02T16:08:55.899Z,2.30
2022-10-02T16:11:37.275Z,2.42
2022-10-02T16:14:19.358Z,2.03
2022-10-02T16:17:04.375Z,2.15
2022-10-02T16:20:24.714Z,2.25
2022-10-02T16:26:08.150Z,2.28
2022-10-02T16:28:50.631Z,2.90
2022-10-02T16:31:36.424Z,3.00
2022-10-02T16:34:19.192Z,13.48
2022-10-02T16:37:08.641Z,3.92
2022-10-02T16:39:55.933Z,2.95
2022-10-02T16:42:37.777Z,4.10
2022-10-02T16:47:53.721Z,2.95
2022-10-02T16:50:48.829Z,3.53
2022-10-02T16:53:36.214Z,3.10
2022-10-02T16:56:22.244Z,2.92
2022-10-02T16:59:06.346Z,3.30
2022-10-02T17:02:05.453Z,3.17
2022-10-02T17:04:57.600Z,3.08
2022-10-02T17:07:54.599Z,3.35
2022-10-02T17:10:37.993Z,3.10
2022-10-02T17:13:31.510Z,3.40
2022-10-02T17:16:21.721Z,3.28
2022-10-02T17:18:58.494Z,3.72
2022-10-02T17:21:44.531Z,3.72
2022-10-02T17:24:40.107Z,4.72
2022-10-02T17:28:06.280Z,5.70
2022-10-02T17:31:06.610Z,5.10
2022-10-02T17:33:55.066Z,5.10
2022-10-02T17:36:36.787Z,4.97
2022-10-02T17:39:34.395Z,5.20
2022-10-02T17:42:20.499Z,5.63
2022-10-02T17:44:58.065Z,5.28
2022-10-02T17:48:08.895Z,5.32
2022-10-02T17:50:58.216Z,4.93
2022-10-02T17:54:17.359Z,6.07
2022-10-02T17:57:07.457Z,5.35
2022-10-02T18:00:00.189Z,5.22
2022-10-02T18:02:44.840Z,5.25
2022-10-02T18:05:37.134Z,5.10
2022-10-02T18:08:17.908Z,5.60
2022-10-02T18:11:25.201Z,4.72
2022-10-02T18:14:11.488Z,5.00
2022-10-02T18:17:01.064Z,4.78
2022-10-02T18:19:47.247Z,4.07
2022-10-02T18:22:55.575Z,5.25
2022-10-02T18:25:51.574Z,3.75
2022-10-02T18:28:53.962Z,4.90
2022-10-02T18:31:56.613Z,3.72
2022-10-02T18:34:46.761Z,3.85
2022-10-02T18:37:36.883Z,4.07
2022-10-02T18:40:26.182Z,4.28
2022-10-02T18:43:03.232Z,4.10
2022-10-02T18:46:19.035Z,3.92
2022-10-02T18:49:08.215Z,4.22
2022-10-02T18:51:46.384Z,4.32
2022-10-02T18:54:34.302Z,4.60
2022-10-02T18:57:10.001Z,5.30
2022-10-02T19:00:33.337Z,4.90
2022-10-02T19:03:20.423Z,4.38
2022-10-02T19:06:09.640Z,4.57
2022-10-02T19:09:22.272Z,3.60
2022-10-02T19:12:25.376Z,5.10
2022-10-02T19:15:27.561Z,4.47
2022-10-02T19:18:04.095Z,4.82
2022-10-02T19:20:42.941Z,4.90
2022-10-02T19:23:26.128Z,3.92
2022-10-02T19:25:56.214Z,4.55
2022-10-02T19:28:30.274Z,4.30
2022-10-02T19:31:11.131Z,5.15
2022-10-02T19:33:51.421Z,4.13
2022-10-02T19:36:24.433Z,4.28
2022-10-02T19:39:16.680Z,5.47
2022-10-02T19:41:53.326Z,4.95
2022-10-02T19:44:37.206Z,5.13
2022-10-02T19:47:35.224Z,4.90
2022-10-02T19:50:09.049Z,5.15
2022-10-02T19:52:48.307Z,4.68
2022-10-02T19:55:29.756Z,4.70
2022-10-02T19:58:14.570Z,5.25
2022-10-02T20:00:46.531Z,5.82
2022-10-02T20:03:22.896Z,5.15
2022-10-02T20:06:01.686Z,4.10
2022-10-02T20:09:10.743Z,4.57
2022-10-02T20:11:44.884Z,4.07
2022-10-02T20:14:35.430Z,4.30
2022-10-02T20:17:09.184Z,4.20
2022-10-02T20:19:56.525Z,4.10
2022-10-02T20:22:47.169Z,5.20
2022-10-02T20:25:26.566Z,5.05
2022-10-02T20:28:21.818Z,4.25
2022-10-02T20:31:06.808Z,4.65
2022-10-02T20:36:23.564Z,4.38
2022-10-02T20:39:20.849Z,4.85
2022-10-02T20:42:10.404Z,5.20
2022-10-02T20:44:42.133Z,3.95
2022-10-02T20:48:05.045Z,5.27
2022-10-02T20:50:47.145Z,5.53
2022-10-02T20:53:45.270Z,4.60
2022-10-02T20:56:28.705Z,5.30
2022-10-02T20:59:49.854Z,5.03
2022-10-02T21:03:17.933Z,5.60
2022-10-02T21:05:54.132Z,6.32
2022-10-02T21:09:08.675Z,4.55
2022-10-02T21:12:17.008Z,4.88
2022-10-02T21:15:07.492Z,3.83
2022-10-02T21:18:12.208Z,4.85
2022-10-02T21:21:03.608Z,3.97
2022-10-02T21:23:52.183Z,5.20
2022-10-02T21:26:44.326Z,4.25
2022-10-02T21:29:30.852Z,4.97
2022-10-02T21:32:07.556Z,4.85
2022-10-02T21:35:00.056Z,4.63
2022-10-02T21:37:47.275Z,4.70
2022-10-02T21:40:53.190Z,5.07
2022-10-02T21:43:44.723Z,5.05
2022-10-02T21:47:10.301Z,5.30
2022-10-02T21:50:04.076Z,5.32
2022-10-02T21:52:33.950Z,5.05
2022-10-02T21:55:19.293Z,4.95
2022-10-02T21:58:19.898Z,5.93
2022-10-02T22:01:26.785Z,4.88
2022-10-02T22:04:23.294Z,4.57
2022-10-02T22:06:56.701Z,5.35
2022-10-02T22:09:44.945Z,5.32
2022-10-02T22:12:41.241Z,5.40
2022-10-02T22:15:19.602Z,5.28
2022-10-02T22:18:14.608Z,4.40
2022-10-02T22:21:11.159Z,5.47
2022-10-02T22:23:51.930Z,5.45
2022-10-02T22:26:31.109Z,5.53
2022-10-02T22:29:41.324Z,6.82
2022-10-02T22:32:47.243Z,6.25
2022-10-02T22:35:34.413Z,5.85
2022-10-02T22:38:16.855Z,6.47
2022-10-02T22:40:52.298Z,7.22
2022-10-02T22:43:34.267Z,5.97
2022-10-02T22:46:47.737Z,8.13
2022-10-02T22:49:34.894Z,8.25
2022-10-02T22:52:22.791Z,6.88
2022-10-02T22:55:07.910Z,7.55
2022-10-02T22:57:51.466Z,7.22
2022-10-02T23:00:33.852Z,6.25
2022-10-02T23:03:29.529Z,6.47
2022-10-02T23:06:12.666Z,7.28
2022-10-02T23:08:51.336Z,7.72
2022-10-02T23:11:41.194Z,8.40
2022-10-02T23:14:38.158Z,8.50
2022-10-02T23:17:27.662Z,7.97
2022-10-02T23:20:06.717Z,7.90
2022-10-02T23:22:43.241Z,7.95
2022-10-02T23:25:26.604Z,8.30
2022-10-02T23:28:11.541Z,8.48
2022-10-02T23:30:48.072Z,7.85
2022-10-02T23:33:25.995Z,8.60
2022-10-02T23:36:35.179Z,7.78
2022-10-02T23:39:22.097Z,7.75
2022-10-02T23:41:54.222Z,7.85
2022-10-02T23:44:43.289Z,7.40
2022-10-02T23:47:20.845Z,7.53
2022-10-02T23:49:53.224Z,7.25
2022-10-02T23:52:37.919Z,6.75
2022-10-02T23:55:23.355Z,6.53
2022-10-02T23:58:21.519Z,5.78
